sensor_id;sensor_type;location;lat;lon;timestamp;pressure;altitude;pressure_sealevel;temperature;humidity
76046;BME280;64741;41.730;44.788;2023-03-01T00:01:43;995.6;;;22.3;39.7
76046;BME280;64741;41.730;44.788;2023-03-01T00:06:53;995.8;;;22.3;39.5
76046;BME280;64741;41.730;44.788;2023-03-01T00:11:51;995.6;;;22.3;39.6
76046;BME280;64741;41.730;44.788;2023-03-01T00:16:57;995.5;;;22.3;39.1
76046;BME280;64741;41.730;44.788;2023-03-01T00:21:51;995.5;;;22.2;39.3
76046;BME280;64741;41.730;44.788;2023-03-01T00:26:57;995.5;;;22.2;39.5
76046;BME280;64741;41.730;44.788;2023-03-01T00:31:45;995.5;;;22.3;39.5
76046;BME280;64741;41.730;44.788;2023-03-01T00:36:49;995.5;;;22.2;39.4
76046;BME280;64741;41.730;44.788;2023-03-01T00:41:57;995.5;;;22.2;39.5
76046;BME280;64741;41.730;44.788;2023-03-01T00:46:51;995.4;;;22.3;39.5
76046;BME280;64741;41.730;44.788;2023-03-01T00:51:59;995.4;;;22.3;39.5
76046;BME280;64741;41.730;44.788;2023-03-01T00:56:53;995.4;;;22.3;39.5
76046;BME280;64741;41.730;44.788;2023-03-01T01:01:49;995.5;;;22.3;39.5
76046;BME280;64741;41.730;44.788;2023-03-01T01:06:57;995.5;;;22.3;39.6
76046;BME280;64741;41.730;44.788;2023-03-01T01:11:57;995.5;;;22.3;39.6
76046;BME280;64741;41.730;44.788;2023-03-01T01:16:53;995.6;;;22.3;39.6
76046;BME280;64741;41.730;44.788;2023-03-01T01:21:59;995.5;;;22.3;39.6
76046;BME280;64741;41.730;44.788;2023-03-01T01:26:51;995.5;;;22.3;39.5
76046;BME280;64741;41.730;44.788;2023-03-01T01:31:49;995.5;;;22.3;39.6
76046;BME280;64741;41.730;44.788;2023-03-01T01:36:57;995.5;;;22.3;39.7
76046;BME280;64741;41.730;44.788;2023-03-01T01:41:51;995.6;;;22.3;39.6
76046;BME280;64741;41.730;44.788;2023-03-01T01:47:00;995.5;;;22.3;39.7
76046;BME280;64741;41.730;44.788;2023-03-01T01:51:53;995.5;;;22.3;39.7
76046;BME280;64741;41.730;44.788;2023-03-01T01:56:52;995.5;;;22.3;39.7
76046;BME280;64741;41.730;44.788;2023-03-01T02:01:57;995.5;;;22.3;39.7
76046;BME280;64741;41.730;44.788;2023-03-01T02:06:53;995.5;;;22.3;39.6
76046;BME280;64741;41.730;44.788;2023-03-01T02:11:59;995.6;;;22.3;39.7
76046;BME280;64741;41.730;44.788;2023-03-01T02:16:53;995.6;;;22.3;39.7
76046;BME280;64741;41.730;44.788;2023-03-01T02:21:52;995.6;;;22.2;39.7
76046;BME280;64741;41.730;44.788;2023-03-01T02:26:57;995.5;;;22.2;39.6
76046;BME280;64741;41.730;44.788;2023-03-01T02:31:45;995.6;;;22.3;39.6
76046;BME280;64741;41.730;44.788;2023-03-01T02:36:24;995.6;;;22.2;39.5
76046;BME280;64741;41.730;44.788;2023-03-01T02:41:54;995.4;;;22.2;39.5
76046;BME280;64741;41.730;44.788;2023-03-01T02:46:42;995.4;;;22.2;39.6
76046;BME280;64741;41.730;44.788;2023-03-01T02:52:05;995.5;;;22.2;39.6
76046;BME280;64741;41.730;44.788;2023-03-01T02:56:17;995.5;;;22.2;39.5
76046;BME280;64741;41.730;44.788;2023-03-01T03:02:00;995.5;;;22.2;39.5
76046;BME280;64741;41.730;44.788;2023-03-01T03:06:53;995.5;;;22.2;39.4
76046;BME280;64741;41.730;44.788;2023-03-01T03:11:51;995.4;;;22.2;39.3
76046;BME280;64741;41.730;44.788;2023-03-01T03:16:57;995.4;;;22.1;39.2
76046;BME280;64741;41.730;44.788;2023-03-01T03:21:31;995.4;;;22.1;39.3
76046;BME280;64741;41.730;44.788;2023-03-01T03:26:59;995.4;;;22.2;39.3
76046;BME280;64741;41.730;44.788;2023-03-01T03:31:51;995.4;;;22.1;39.4
76046;BME280;64741;41.730;44.788;2023-03-01T03:36:52;995.3;;;22.2;39.3
76046;BME280;64741;41.730;44.788;2023-03-01T03:41:57;995.3;;;22.2;39.3
76046;BME280;64741;41.730;44.788;2023-03-01T03:46:53;995.4;;;22.2;39.3
76046;BME280;64741;41.730;44.788;2023-03-01T03:51:57;995.3;;;22.1;39.3
76046;BME280;64741;41.730;44.788;2023-03-01T03:56:51;995.3;;;22.1;39.2
76046;BME280;64741;41.730;44.788;2023-03-01T04:01:49;995.3;;;22.1;39.3
76046;BME280;64741;41.730;44.788;2023-03-01T04:06:55;995.2;;;22.1;39.3
76046;BME280;64741;41.730;44.788;2023-03-01T04:11:53;995.3;;;22.1;39.3
76046;BME280;64741;41.730;44.788;2023-03-01T04:16:59;995.3;;;22.1;39.3
76046;BME280;64741;41.730;44.788;2023-03-01T04:21:53;995.2;;;22.1;39.2
76046;BME280;64741;41.730;44.788;2023-03-01T04:26:51;995.3;;;22.1;39.2
76046;BME280;64741;41.730;44.788;2023-03-01T04:31:57;995.2;;;22.1;39.1
76046;BME280;64741;41.730;44.788;2023-03-01T04:36:49;995.3;;;22.1;39
76046;BME280;64741;41.730;44.788;2023-03-01T04:41:57;995.3;;;22.1;38.8
76046;BME280;64741;41.730;44.788;2023-03-01T04:46:51;995.3;;;22;38.7
76046;BME280;64741;41.730;44.788;2023-03-01T04:51:51;995.4;;;22;38.7
76046;BME280;64741;41.730;44.788;2023-03-01T04:56:55;995.4;;;22;38.7
76046;BME280;64741;41.730;44.788;2023-03-01T05:01:49;995.4;;;22;38.7
76046;BME280;64741;41.730;44.788;2023-03-01T05:06:57;995.4;;;22;38.7
76046;BME280;64741;41.730;44.788;2023-03-01T05:11:51;995.5;;;22;38.8
76046;BME280;64741;41.730;44.788;2023-03-01T05:16:49;995.5;;;22;38.7
76046;BME280;64741;41.730;44.788;2023-03-01T05:21:53;995.6;;;22;38.7
76046;BME280;64741;41.730;44.788;2023-03-01T05:26:47;995.6;;;22;38.7
76046;BME280;64741;41.730;44.788;2023-03-01T05:31:56;995.6;;;22;38.6
76046;BME280;64741;41.730;44.788;2023-03-01T05:36:41;995.6;;;22;38.6
76046;BME280;64741;41.730;44.788;2023-03-01T05:41:51;995.6;;;22;38.6
76046;BME280;64741;41.730;44.788;2023-03-01T05:46:57;995.6;;;22;38.5
76046;BME280;64741;41.730;44.788;2023-03-01T05:51:50;995.6;;;21.9;38.6
76046;BME280;64741;41.730;44.788;2023-03-01T05:56:55;995.5;;;21.9;38.6
76046;BME280;64741;41.730;44.788;2023-03-01T06:01:53;995.5;;;22;38.6
76046;BME280;64741;41.730;44.788;2023-03-01T06:06:49;995.4;;;21.9;38.4
76046;BME280;64741;41.730;44.788;2023-03-01T06:11:57;995.4;;;21.9;38.5
76046;BME280;64741;41.730;44.788;2023-03-01T06:16:51;995.4;;;21.9;38.4
76046;BME280;64741;41.730;44.788;2023-03-01T06:21:57;995.3;;;21.9;38.5
76046;BME280;64741;41.730;44.788;2023-03-01T06:26:53;995.3;;;21.9;38.5
76046;BME280;64741;41.730;44.788;2023-03-01T06:31:39;995.2;;;22;38.4
76046;BME280;64741;41.730;44.788;2023-03-01T06:36:57;995.3;;;22;38.6
76046;BME280;64741;41.730;44.788;2023-03-01T06:41:49;995.3;;;22;38.7
76046;BME280;64741;41.730;44.788;2023-03-01T06:46:43;995.3;;;22;38.7
76046;BME280;64741;41.730;44.788;2023-03-01T06:51:53;995.3;;;22;38.6
76046;BME280;64741;41.730;44.788;2023-03-01T06:56:51;995.3;;;22;38.8
76046;BME280;64741;41.730;44.788;2023-03-01T07:01:57;995.4;;;22;38.8
76046;BME280;64741;41.730;44.788;2023-03-01T07:06:53;995.3;;;22;38.9
76046;BME280;64741;41.730;44.788;2023-03-01T07:11:57;995.3;;;22;38.9
76046;BME280;64741;41.730;44.788;2023-03-01T07:16:57;995.2;;;22;38.9
76046;BME280;64741;41.730;44.788;2023-03-01T07:21:55;995.2;;;22.1;39
76046;BME280;64741;41.730;44.788;2023-03-01T07:27:01;995.1;;;22.1;39
76046;BME280;64741;41.730;44.788;2023-03-01T07:31:55;995.1;;;22.1;39
76046;BME280;64741;41.730;44.788;2023-03-01T07:36:59;995.1;;;22.1;39.1
76046;BME280;64741;41.730;44.788;2023-03-01T07:41:57;995.1;;;22.1;39
76046;BME280;64741;41.730;44.788;2023-03-01T07:46:55;995;;;22.1;38.8
76046;BME280;64741;41.730;44.788;2023-03-01T07:52:01;994.9;;;22.1;38.8
76046;BME280;64741;41.730;44.788;2023-03-01T07:56:56;994.9;;;22.1;38.8
76046;BME280;64741;41.730;44.788;2023-03-01T08:01:57;994.9;;;22.1;38.7
76046;BME280;64741;41.730;44.788;2023-03-01T08:06:53;994.8;;;22.1;38.8
76046;BME280;64741;41.730;44.788;2023-03-01T08:11:53;994.8;;;22.1;38.7
76046;BME280;64741;41.730;44.788;2023-03-01T08:16:59;994.8;;;22.1;38.8
76046;BME280;64741;41.730;44.788;2023-03-01T08:21:53;994.8;;;22.1;39
76046;BME280;64741;41.730;44.788;2023-03-01T08:26:55;994.7;;;22.1;39.1
76046;BME280;64741;41.730;44.788;2023-03-01T08:31:57;994.7;;;22.1;39.3
76046;BME280;64741;41.730;44.788;2023-03-01T08:36:55;994.7;;;22.2;39.4
76046;BME280;64741;41.730;44.788;2023-03-01T08:41:59;994.6;;;22.2;39.5
76046;BME280;64741;41.730;44.788;2023-03-01T08:46:55;994.5;;;22.2;39.6
76046;BME280;64741;41.730;44.788;2023-03-01T08:51:57;994.4;;;22.2;39.7
76046;BME280;64741;41.730;44.788;2023-03-01T08:56:53;994.3;;;22.2;39.6
76046;BME280;64741;41.730;44.788;2023-03-01T09:01:53;994.2;;;22.2;39.3
76046;BME280;64741;41.730;44.788;2023-03-01T09:06:59;994.1;;;22.1;39.2
76046;BME280;64741;41.730;44.788;2023-03-01T09:11:53;994;;;22.1;39
76046;BME280;64741;41.730;44.788;2023-03-01T09:16:57;993.9;;;22.1;39
76046;BME280;64741;41.730;44.788;2023-03-01T09:21:10;993.7;;;22.1;38.8
76046;BME280;64741;41.730;44.788;2023-03-01T09:26:59;993.6;;;22.1;38.7
76046;BME280;64741;41.730;44.788;2023-03-01T09:31:55;993.5;;;22.1;38.6
76046;BME280;64741;41.730;44.788;2023-03-01T09:36:57;993.4;;;22.1;38.6
76046;BME280;64741;41.730;44.788;2023-03-01T09:41:49;993.3;;;22.1;38.3
76046;BME280;64741;41.730;44.788;2023-03-01T09:46:53;993.2;;;22.1;38.1
76046;BME280;64741;41.730;44.788;2023-03-01T09:51:59;993.1;;;22.1;37.9
76046;BME280;64741;41.730;44.788;2023-03-01T09:57:03;993;;;22.1;37.9
76046;BME280;64741;41.730;44.788;2023-03-01T10:01:56;992.9;;;22.1;37.7
76046;BME280;64741;41.730;44.788;2023-03-01T10:06:31;992.9;;;22.1;37.7
76046;BME280;64741;41.730;44.788;2023-03-01T10:11:52;992.8;;;22.1;37.6
76046;BME280;64741;41.730;44.788;2023-03-01T10:16:58;992.7;;;22.1;37.7
76046;BME280;64741;41.730;44.788;2023-03-01T10:21:56;992.7;;;22.1;37.5
76046;BME280;64741;41.730;44.788;2023-03-01T10:26:56;992.6;;;22.1;37.3
76046;BME280;64741;41.730;44.788;2023-03-01T10:31:57;992.5;;;22.1;37
76046;BME280;64741;41.730;44.788;2023-03-01T10:36:55;992.5;;;22.1;37
76046;BME280;64741;41.730;44.788;2023-03-01T10:41:58;992.4;;;22.1;37.1
76046;BME280;64741;41.730;44.788;2023-03-01T10:46:59;992.4;;;22.1;37.4
76046;BME280;64741;41.730;44.788;2023-03-01T10:51:53;992.2;;;22.1;37.6
76046;BME280;64741;41.730;44.788;2023-03-01T10:56:58;992.1;;;22.2;37.5
76046;BME280;64741;41.730;44.788;2023-03-01T11:01:37;992;;;22.2;37.6
76046;BME280;64741;41.730;44.788;2023-03-01T11:06:58;991.9;;;22.2;37.7
76046;BME280;64741;41.730;44.788;2023-03-01T11:11:54;991.8;;;22.2;37.7
76046;BME280;64741;41.730;44.788;2023-03-01T11:16:59;991.8;;;22.2;37.7
76046;BME280;64741;41.730;44.788;2023-03-01T11:21:59;991.7;;;22.2;37.5
76046;BME280;64741;41.730;44.788;2023-03-01T11:26:54;991.6;;;22.2;37.5
76046;BME280;64741;41.730;44.788;2023-03-01T11:31:58;991.6;;;22.2;37.5
76046;BME280;64741;41.730;44.788;2023-03-01T11:36:52;991.6;;;22.2;37.5
76046;BME280;64741;41.730;44.788;2023-03-01T11:41:59;991.6;;;22.2;37.5
76046;BME280;64741;41.730;44.788;2023-03-01T11:47:03;991.6;;;22.2;37.4
76046;BME280;64741;41.730;44.788;2023-03-01T11:51:52;991.6;;;22.2;37.2
76046;BME280;64741;41.730;44.788;2023-03-01T11:56:57;991.6;;;22.2;37.3
76046;BME280;64741;41.730;44.788;2023-03-01T12:01:48;991.5;;;22.2;37.3
76046;BME280;64741;41.730;44.788;2023-03-01T12:06:52;991.6;;;22.2;37.2
76046;BME280;64741;41.730;44.788;2023-03-01T12:11:57;991.5;;;22.1;37.1
76046;BME280;64741;41.730;44.788;2023-03-01T12:16:28;991.5;;;22.1;37.1
76046;BME280;64741;41.730;44.788;2023-03-01T12:21:48;991.5;;;22.2;37.2
76046;BME280;64741;41.730;44.788;2023-03-01T12:26:54;991.5;;;22.1;37.1
76046;BME280;64741;41.730;44.788;2023-03-01T12:32:00;991.4;;;22.1;37.1
76046;BME280;64741;41.730;44.788;2023-03-01T12:36:59;991.4;;;22.1;37.1
76046;BME280;64741;41.730;44.788;2023-03-01T12:41:54;991.5;;;22.1;36.9
76046;BME280;64741;41.730;44.788;2023-03-01T12:46:58;991.6;;;22.1;37
76046;BME280;64741;41.730;44.788;2023-03-01T12:51:51;991.6;;;22.1;37
76046;BME280;64741;41.730;44.788;2023-03-01T12:56:53;991.6;;;22.1;36.9
76046;BME280;64741;41.730;44.788;2023-03-01T13:02:01;991.6;;;22.1;36.9
76046;BME280;64741;41.730;44.788;2023-03-01T13:06:57;991.7;;;22.1;36.9
76046;BME280;64741;41.730;44.788;2023-03-01T13:11:57;991.6;;;22.1;36.8
76046;BME280;64741;41.730;44.788;2023-03-01T13:16:57;991.6;;;22.1;36.8
76046;BME280;64741;41.730;44.788;2023-03-01T13:21:53;991.7;;;22;36.8
76046;BME280;64741;41.730;44.788;2023-03-01T13:27:21;991.7;;;22;37
76046;BME280;64741;41.730;44.788;2023-03-01T13:48:10;991.5;;;22;37.2
76046;BME280;64741;41.730;44.788;2023-03-01T14:08:23;991.6;;;22;37.2
76046;BME280;64741;41.730;44.788;2023-03-01T14:14:10;991.6;;;22;37.3
76046;BME280;64741;41.730;44.788;2023-03-01T14:19:06;991.5;;;22.1;37.3
76046;BME280;64741;41.730;44.788;2023-03-01T14:23:34;991.5;;;22;37.4
76046;BME280;64741;41.730;44.788;2023-03-01T14:29:04;991.5;;;22.1;37.8
76046;BME280;64741;41.730;44.788;2023-03-01T14:34:05;991.5;;;22.2;38.1
76046;BME280;64741;41.730;44.788;2023-03-01T14:39:15;991.5;;;22.3;38.4
76046;BME280;64741;41.730;44.788;2023-03-01T14:44:05;991.5;;;22.3;39.6
76046;BME280;64741;41.730;44.788;2023-03-01T14:49:09;991.5;;;22.4;40.8
76046;BME280;64741;41.730;44.788;2023-03-01T14:54:10;991.5;;;22.4;41.8
76046;BME280;64741;41.730;44.788;2023-03-01T14:59:07;991.4;;;22.5;42.2
76046;BME280;64741;41.730;44.788;2023-03-01T15:04:06;991.4;;;22.5;42.7
76046;BME280;64741;41.730;44.788;2023-03-01T15:09:04;991.4;;;22.6;43.8
76046;BME280;64741;41.730;44.788;2023-03-01T15:14:24;991.5;;;22.6;43.9
76046;BME280;64741;41.730;44.788;2023-03-01T15:19:05;991.4;;;22.6;43.7
76046;BME280;64741;41.730;44.788;2023-03-01T15:24:07;991.5;;;22.6;43.1
76046;BME280;64741;41.730;44.788;2023-03-01T15:29:11;991.5;;;22.6;43
76046;BME280;64741;41.730;44.788;2023-03-01T15:34:08;991.6;;;22.6;42.7
76046;BME280;64741;41.730;44.788;2023-03-01T15:39:22;991.6;;;22.7;42.6
76046;BME280;64741;41.730;44.788;2023-03-01T15:44:14;991.6;;;22.7;42.5
76046;BME280;64741;41.730;44.788;2023-03-01T15:49:18;991.6;;;22.8;42.4
76046;BME280;64741;41.730;44.788;2023-03-01T15:54:10;991.7;;;22.8;42.4
76046;BME280;64741;41.730;44.788;2023-03-01T15:59:02;991.8;;;22.9;42.6
76046;BME280;64741;41.730;44.788;2023-03-01T16:04:04;991.8;;;22.9;42.8
76046;BME280;64741;41.730;44.788;2023-03-01T16:09:04;991.8;;;23;43
76046;BME280;64741;41.730;44.788;2023-03-01T16:14:07;991.8;;;23;43.2
76046;BME280;64741;41.730;44.788;2023-03-01T16:19:08;991.8;;;23.1;43.7
76046;BME280;64741;41.730;44.788;2023-03-01T16:24:05;991.9;;;23.1;44.3
76046;BME280;64741;41.730;44.788;2023-03-01T16:29:06;991.9;;;23.2;44.6
76046;BME280;64741;41.730;44.788;2023-03-01T16:34:04;991.9;;;23.2;45.5
76046;BME280;64741;41.730;44.788;2023-03-01T16:39:06;991.8;;;23.3;46.2
76046;BME280;64741;41.730;44.788;2023-03-01T16:44:06;991.8;;;23.3;46.6
76046;BME280;64741;41.730;44.788;2023-03-01T16:49:04;991.9;;;23.3;47.2
76046;BME280;64741;41.730;44.788;2023-03-01T16:54:06;992;;;23.3;47.3
76046;BME280;64741;41.730;44.788;2023-03-01T16:59:02;992;;;23.3;47.6
76046;BME280;64741;41.730;44.788;2023-03-01T17:04:08;992;;;23.3;47.6
76046;BME280;64741;41.730;44.788;2023-03-01T17:09:06;992.1;;;23.3;47.6
76046;BME280;64741;41.730;44.788;2023-03-01T17:14:04;992.1;;;23.3;47.6
76046;BME280;64741;41.730;44.788;2023-03-01T17:19:06;992.1;;;23.3;47.6
76046;BME280;64741;41.730;44.788;2023-03-01T17:24:08;992.1;;;23.2;47.2
76046;BME280;64741;41.730;44.788;2023-03-01T17:28:54;992.1;;;23.2;46.4
76046;BME280;64741;41.730;44.788;2023-03-01T17:33:54;992.1;;;23.2;45.9
76046;BME280;64741;41.730;44.788;2023-03-01T17:39:04;992.2;;;23.2;45.3
76046;BME280;64741;41.730;44.788;2023-03-01T17:44:04;992.2;;;23.2;44.7
76046;BME280;64741;41.730;44.788;2023-03-01T17:49:08;992.2;;;23.1;44.3
76046;BME280;64741;41.730;44.788;2023-03-01T17:54:04;992.3;;;23.1;43.9
76046;BME280;64741;41.730;44.788;2023-03-01T17:59:08;992.4;;;23.1;43.2
76046;BME280;64741;41.730;44.788;2023-03-01T18:04:06;992.4;;;23;42.9
76046;BME280;64741;41.730;44.788;2023-03-01T18:09:06;992.5;;;23;42.7
76046;BME280;64741;41.730;44.788;2023-03-01T18:13:58;992.5;;;23;42.6
76046;BME280;64741;41.730;44.788;2023-03-01T18:19:06;992.5;;;22.9;42.2
76046;BME280;64741;41.730;44.788;2023-03-01T18:24:06;992.5;;;22.9;42
76046;BME280;64741;41.730;44.788;2023-03-01T18:29:06;992.5;;;22.9;41.9
76046;BME280;64741;41.730;44.788;2023-03-01T18:34:08;992.5;;;22.9;41.9
76046;BME280;64741;41.730;44.788;2023-03-01T18:39:10;992.6;;;22.9;41.8
76046;BME280;64741;41.730;44.788;2023-03-01T18:44:06;992.6;;;22.8;41.6
76046;BME280;64741;41.730;44.788;2023-03-01T18:48:32;992.5;;;22.8;41.6
76046;BME280;64741;41.730;44.788;2023-03-01T18:54:06;992.5;;;22.8;41.5
76046;BME280;64741;41.730;44.788;2023-03-01T18:59:08;992.6;;;22.8;41.4
76046;BME280;64741;41.730;44.788;2023-03-01T19:04:10;992.6;;;22.8;41.3
76046;BME280;64741;41.730;44.788;2023-03-01T19:09:05;992.5;;;22.8;41.2
76046;BME280;64741;41.730;44.788;2023-03-01T19:13:58;992.5;;;22.8;41.2
76046;BME280;64741;41.730;44.788;2023-03-01T19:19:06;992.5;;;22.8;41.1
76046;BME280;64741;41.730;44.788;2023-03-01T19:24:08;992.4;;;22.8;41.1
76046;BME280;64741;41.730;44.788;2023-03-01T19:29:08;992.3;;;22.8;41.1
76046;BME280;64741;41.730;44.788;2023-03-01T19:34:05;992.3;;;22.8;41.1
76046;BME280;64741;41.730;44.788;2023-03-01T19:39:04;992.3;;;22.7;41
76046;BME280;64741;41.730;44.788;2023-03-01T19:44:04;992.3;;;22.7;40.8
76046;BME280;64741;41.730;44.788;2023-03-01T19:49:04;992.1;;;22.7;40.8
76046;BME280;64741;41.730;44.788;2023-03-01T19:54:08;992.1;;;22.7;40.6
76046;BME280;64741;41.730;44.788;2023-03-01T19:59:04;992;;;22.7;40.7
76046;BME280;64741;41.730;44.788;2023-03-01T20:04:04;991.9;;;22.7;40.5
76046;BME280;64741;41.730;44.788;2023-03-01T20:09:02;991.9;;;22.7;40.4
76046;BME280;64741;41.730;44.788;2023-03-01T20:14:06;991.8;;;22.6;40.3
76046;BME280;64741;41.730;44.788;2023-03-01T20:19:08;991.7;;;22.6;40.1
76046;BME280;64741;41.730;44.788;2023-03-01T20:24:04;991.7;;;22.6;40.1
76046;BME280;64741;41.730;44.788;2023-03-01T20:29:08;991.7;;;22.6;40.3
76046;BME280;64741;41.730;44.788;2023-03-01T20:34:06;991.7;;;22.6;40.3
76046;BME280;64741;41.730;44.788;2023-03-01T20:38:56;991.6;;;22.6;40.4
76046;BME280;64741;41.730;44.788;2023-03-01T20:44:08;991.7;;;22.6;40.5
76046;BME280;64741;41.730;44.788;2023-03-01T20:49:04;991.7;;;22.6;40.5
76046;BME280;64741;41.730;44.788;2023-03-01T20:54:06;991.6;;;22.6;40.6
76046;BME280;64741;41.730;44.788;2023-03-01T20:59:06;991.7;;;22.6;40.6
76046;BME280;64741;41.730;44.788;2023-03-01T21:04:10;991.7;;;22.6;40.6
76046;BME280;64741;41.730;44.788;2023-03-01T21:09:02;991.6;;;22.6;40.5
76046;BME280;64741;41.730;44.788;2023-03-01T21:14:06;991.6;;;22.6;40.5
76046;BME280;64741;41.730;44.788;2023-03-01T21:18:54;991.6;;;22.6;40.5
76046;BME280;64741;41.730;44.788;2023-03-01T21:24:06;991.7;;;22.6;40.5
76046;BME280;64741;41.730;44.788;2023-03-01T21:29:10;991.8;;;22.6;40.4
76046;BME280;64741;41.730;44.788;2023-03-01T21:34:04;991.8;;;22.6;40.5
76046;BME280;64741;41.730;44.788;2023-03-01T21:39:04;991.9;;;22.6;40.4
76046;BME280;64741;41.730;44.788;2023-03-01T21:44:04;991.9;;;22.6;40.5
76046;BME280;64741;41.730;44.788;2023-03-01T21:48:20;992;;;22.6;40.4
76046;BME280;64741;41.730;44.788;2023-03-01T21:54:08;992;;;22.6;40.3
76046;BME280;64741;41.730;44.788;2023-03-01T21:59:04;992;;;22.6;40.3
76046;BME280;64741;41.730;44.788;2023-03-01T22:03:54;992;;;22.6;40.3
76046;BME280;64741;41.730;44.788;2023-03-01T22:09:03;992;;;22.6;40.3
76046;BME280;64741;41.730;44.788;2023-03-01T22:14:04;991.9;;;22.6;40.1
76046;BME280;64741;41.730;44.788;2023-03-01T22:19:08;991.9;;;22.6;40.1
76046;BME280;64741;41.730;44.788;2023-03-01T22:24:04;992;;;22.6;40.1
76046;BME280;64741;41.730;44.788;2023-03-01T22:29:07;992;;;22.6;40.3
76046;BME280;64741;41.730;44.788;2023-03-01T22:34:02;991.9;;;22.6;40.4
76046;BME280;64741;41.730;44.788;2023-03-01T22:39:02;991.8;;;22.6;40.6
76046;BME280;64741;41.730;44.788;2023-03-01T22:44:06;991.8;;;22.7;40.7
76046;BME280;64741;41.730;44.788;2023-03-01T22:49:02;991.8;;;22.7;40.6
76046;BME280;64741;41.730;44.788;2023-03-01T22:54:06;991.7;;;22.7;40.6
76046;BME280;64741;41.730;44.788;2023-03-01T22:59:03;991.7;;;22.7;40.6
76046;BME280;64741;41.730;44.788;2023-03-01T23:04:04;991.6;;;22.7;40.8
76046;BME280;64741;41.730;44.788;2023-03-01T23:09:08;991.5;;;22.7;40.6
76046;BME280;64741;41.730;44.788;2023-03-01T23:14:04;991.5;;;22.7;40.2
76046;BME280;64741;41.730;44.788;2023-03-01T23:19:06;991.4;;;22.7;40.2
76046;BME280;64741;41.730;44.788;2023-03-01T23:24:04;991.4;;;22.7;40.2
76046;BME280;64741;41.730;44.788;2023-03-01T23:29:04;991.3;;;22.7;40.3
76046;BME280;64741;41.730;44.788;2023-03-01T23:34:08;991.3;;;22.7;40.3
76046;BME280;64741;41.730;44.788;2023-03-01T23:39:05;991.3;;;22.7;40.2
76046;BME280;64741;41.730;44.788;2023-03-01T23:44:06;991.3;;;22.7;40.1
76046;BME280;64741;41.730;44.788;2023-03-01T23:49:02;991.2;;;22.7;40.1
76046;BME280;64741;41.730;44.788;2023-03-01T23:54:04;991.2;;;22.7;40
76046;BME280;64741;41.730;44.788;2023-03-01T23:59:09;991.2;;;22.7;40.1
